sensor_id;sensor_type;location;lat;lon;timestamp;P1;durP1;ratioP1;P2;durP2;ratioP2
16965;SDS011;8599;47.852;12.070;2023-05-13T00:00:28;7.43;;;6.20;;
16965;SDS011;8599;47.852;12.070;2023-05-13T00:02:55;7.13;;;5.93;;
16965;SDS011;8599;47.852;12.070;2023-05-13T00:05:22;11.60;;;5.97;;
16965;SDS011;8599;47.852;12.070;2023-05-13T00:07:49;8.60;;;6.63;;
16965;SDS011;8599;47.852;12.070;2023-05-13T00:10:17;8.63;;;6.80;;
16965;SDS011;8599;47.852;12.070;2023-05-13T00:12:44;7.90;;;6.57;;
16965;SDS011;8599;47.852;12.070;2023-05-13T00:15:11;8.40;;;6.60;;
16965;SDS011;8599;47.852;12.070;2023-05-13T00:17:38;6.93;;;6.23;;
16965;SDS011;8599;47.852;12.070;2023-05-13T00:20:06;7.07;;;6.37;;
16965;SDS011;8599;47.852;12.070;2023-05-13T00:22:33;7.13;;;6.33;;
16965;SDS011;8599;47.852;12.070;2023-05-13T00:25:00;9.30;;;7.50;;
16965;SDS011;8599;47.852;12.070;2023-05-13T00:27:28;9.33;;;7.10;;
16965;SDS011;8599;47.852;12.070;2023-05-13T00:29:56;9.77;;;6.97;;
16965;SDS011;8599;47.852;12.070;2023-05-13T00:32:24;8.27;;;5.90;;
16965;SDS011;8599;47.852;12.070;2023-05-13T00:34:51;8.20;;;6.87;;
16965;SDS011;8599;47.852;12.070;2023-05-13T00:37:17;10.33;;;6.80;;
16965;SDS011;8599;47.852;12.070;2023-05-13T00:39:44;7.93;;;7.03;;
16965;SDS011;8599;47.852;12.070;2023-05-13T00:42:11;8.57;;;7.50;;
16965;SDS011;8599;47.852;12.070;2023-05-13T00:44:39;9.30;;;7.20;;
16965;SDS011;8599;47.852;12.070;2023-05-13T00:47:06;9.70;;;7.57;;
16965;SDS011;8599;47.852;12.070;2023-05-13T00:49:35;10.53;;;7.93;;
16965;SDS011;8599;47.852;12.070;2023-05-13T00:52:02;11.20;;;7.87;;
16965;SDS011;8599;47.852;12.070;2023-05-13T00:54:30;9.43;;;8.30;;
16965;SDS011;8599;47.852;12.070;2023-05-13T00:56:57;10.23;;;7.47;;
16965;SDS011;8599;47.852;12.070;2023-05-13T00:59:25;9.67;;;7.90;;
16965;SDS011;8599;47.852;12.070;2023-05-13T01:01:55;10.40;;;8.17;;
16965;SDS011;8599;47.852;12.070;2023-05-13T01:04:30;9.57;;;8.27;;
16965;SDS011;8599;47.852;12.070;2023-05-13T01:07:08;11.57;;;8.47;;
16965;SDS011;8599;47.852;12.070;2023-05-13T01:09:45;12.37;;;8.67;;
16965;SDS011;8599;47.852;12.070;2023-05-13T01:12:23;11.37;;;8.63;;
16965;SDS011;8599;47.852;12.070;2023-05-13T01:14:57;15.90;;;8.47;;
16965;SDS011;8599;47.852;12.070;2023-05-13T01:17:31;10.97;;;8.97;;
16965;SDS011;8599;47.852;12.070;2023-05-13T01:20:01;15.30;;;8.47;;
16965;SDS011;8599;47.852;12.070;2023-05-13T01:22:30;12.50;;;9.10;;
16965;SDS011;8599;47.852;12.070;2023-05-13T01:24:57;12.17;;;8.27;;
16965;SDS011;8599;47.852;12.070;2023-05-13T01:27:24;10.30;;;8.73;;
16965;SDS011;8599;47.852;12.070;2023-05-13T01:29:51;9.50;;;8.13;;
16965;SDS011;8599;47.852;12.070;2023-05-13T01:32:20;11.67;;;8.77;;
16965;SDS011;8599;47.852;12.070;2023-05-13T01:34:48;9.13;;;8.10;;
16965;SDS011;8599;47.852;12.070;2023-05-13T01:37:17;11.03;;;7.97;;
16965;SDS011;8599;47.852;12.070;2023-05-13T01:39:45;11.33;;;7.87;;
16965;SDS011;8599;47.852;12.070;2023-05-13T01:42:12;12.87;;;8.37;;
16965;SDS011;8599;47.852;12.070;2023-05-13T01:44:39;10.50;;;8.37;;
16965;SDS011;8599;47.852;12.070;2023-05-13T01:47:06;10.20;;;8.10;;
16965;SDS011;8599;47.852;12.070;2023-05-13T01:49:33;8.70;;;7.73;;
16965;SDS011;8599;47.852;12.070;2023-05-13T01:52:00;11.27;;;8.70;;
16965;SDS011;8599;47.852;12.070;2023-05-13T01:54:28;13.40;;;9.07;;
16965;SDS011;8599;47.852;12.070;2023-05-13T01:56:56;11.63;;;8.03;;
16965;SDS011;8599;47.852;12.070;2023-05-13T01:59:23;11.63;;;8.03;;
16965;SDS011;8599;47.852;12.070;2023-05-13T02:01:50;10.10;;;7.87;;
16965;SDS011;8599;47.852;12.070;2023-05-13T02:04:17;11.40;;;7.67;;
16965;SDS011;8599;47.852;12.070;2023-05-13T02:06:43;10.50;;;8.07;;
16965;SDS011;8599;47.852;12.070;2023-05-13T02:09:10;10.47;;;7.87;;
16965;SDS011;8599;47.852;12.070;2023-05-13T02:11:37;10.97;;;8.00;;
16965;SDS011;8599;47.852;12.070;2023-05-13T02:14:06;13.73;;;8.60;;
16965;SDS011;8599;47.852;12.070;2023-05-13T02:16:33;10.73;;;8.47;;
16965;SDS011;8599;47.852;12.070;2023-05-13T02:19:10;11.90;;;8.77;;
16965;SDS011;8599;47.852;12.070;2023-05-13T02:21:36;11.97;;;8.63;;
16965;SDS011;8599;47.852;12.070;2023-05-13T02:24:04;11.33;;;8.60;;
16965;SDS011;8599;47.852;12.070;2023-05-13T02:26:31;11.87;;;8.87;;
16965;SDS011;8599;47.852;12.070;2023-05-13T02:28:58;13.83;;;8.87;;
16965;SDS011;8599;47.852;12.070;2023-05-13T02:31:26;11.47;;;8.50;;
16965;SDS011;8599;47.852;12.070;2023-05-13T02:33:53;12.80;;;8.73;;
16965;SDS011;8599;47.852;12.070;2023-05-13T02:36:20;11.60;;;8.67;;
16965;SDS011;8599;47.852;12.070;2023-05-13T02:38:46;11.80;;;8.23;;
16965;SDS011;8599;47.852;12.070;2023-05-13T02:41:13;11.13;;;8.23;;
16965;SDS011;8599;47.852;12.070;2023-05-13T02:43:40;12.37;;;9.30;;
16965;SDS011;8599;47.852;12.070;2023-05-13T02:46:07;9.60;;;8.30;;
16965;SDS011;8599;47.852;12.070;2023-05-13T02:48:35;10.77;;;8.43;;
16965;SDS011;8599;47.852;12.070;2023-05-13T02:51:02;11.93;;;8.50;;
16965;SDS011;8599;47.852;12.070;2023-05-13T02:53:29;11.60;;;8.43;;
16965;SDS011;8599;47.852;12.070;2023-05-13T02:55:55;15.70;;;9.20;;
16965;SDS011;8599;47.852;12.070;2023-05-13T02:58:23;11.83;;;8.67;;
16965;SDS011;8599;47.852;12.070;2023-05-13T03:00:50;9.50;;;8.57;;
16965;SDS011;8599;47.852;12.070;2023-05-13T03:03:17;10.50;;;8.60;;
16965;SDS011;8599;47.852;12.070;2023-05-13T03:05:45;12.03;;;9.27;;
16965;SDS011;8599;47.852;12.070;2023-05-13T03:08:11;12.20;;;9.27;;
16965;SDS011;8599;47.852;12.070;2023-05-13T03:10:38;12.60;;;9.63;;
16965;SDS011;8599;47.852;12.070;2023-05-13T03:13:05;12.60;;;8.80;;
16965;SDS011;8599;47.852;12.070;2023-05-13T03:15:32;14.03;;;10.13;;
16965;SDS011;8599;47.852;12.070;2023-05-13T03:17:59;13.43;;;9.40;;
16965;SDS011;8599;47.852;12.070;2023-05-13T03:20:25;12.10;;;9.63;;
16965;SDS011;8599;47.852;12.070;2023-05-13T03:22:54;15.33;;;10.47;;
16965;SDS011;8599;47.852;12.070;2023-05-13T03:25:21;14.00;;;9.80;;
16965;SDS011;8599;47.852;12.070;2023-05-13T03:27:47;14.53;;;9.67;;
16965;SDS011;8599;47.852;12.070;2023-05-13T03:30:14;13.13;;;10.30;;
16965;SDS011;8599;47.852;12.070;2023-05-13T03:32:41;12.00;;;9.97;;
16965;SDS011;8599;47.852;12.070;2023-05-13T03:35:08;16.20;;;10.53;;
16965;SDS011;8599;47.852;12.070;2023-05-13T03:37:34;13.23;;;10.23;;
16965;SDS011;8599;47.852;12.070;2023-05-13T03:40:03;13.33;;;10.57;;
16965;SDS011;8599;47.852;12.070;2023-05-13T03:42:30;15.90;;;10.47;;
16965;SDS011;8599;47.852;12.070;2023-05-13T03:44:57;12.57;;;10.27;;
16965;SDS011;8599;47.852;12.070;2023-05-13T03:47:24;14.10;;;10.80;;
16965;SDS011;8599;47.852;12.070;2023-05-13T03:49:51;15.13;;;10.87;;
16965;SDS011;8599;47.852;12.070;2023-05-13T03:52:18;13.57;;;10.37;;
16965;SDS011;8599;47.852;12.070;2023-05-13T03:54:45;12.67;;;10.07;;
16965;SDS011;8599;47.852;12.070;2023-05-13T03:57:13;15.57;;;11.50;;
16965;SDS011;8599;47.852;12.070;2023-05-13T03:59:40;14.70;;;10.27;;
16965;SDS011;8599;47.852;12.070;2023-05-13T04:02:06;14.60;;;10.67;;
16965;SDS011;8599;47.852;12.070;2023-05-13T04:04:33;12.80;;;10.53;;
16965;SDS011;8599;47.852;12.070;2023-05-13T04:07:00;15.93;;;11.30;;
16965;SDS011;8599;47.852;12.070;2023-05-13T04:09:27;16.37;;;11.20;;
16965;SDS011;8599;47.852;12.070;2023-05-13T04:11:53;13.17;;;10.03;;
16965;SDS011;8599;47.852;12.070;2023-05-13T04:14:22;21.53;;;10.30;;
16965;SDS011;8599;47.852;12.070;2023-05-13T04:16:48;15.33;;;11.77;;
16965;SDS011;8599;47.852;12.070;2023-05-13T04:19:15;22.20;;;11.40;;
16965;SDS011;8599;47.852;12.070;2023-05-13T04:21:42;15.17;;;11.07;;
16965;SDS011;8599;47.852;12.070;2023-05-13T04:24:09;16.20;;;11.13;;
16965;SDS011;8599;47.852;12.070;2023-05-13T04:26:36;13.50;;;10.83;;
16965;SDS011;8599;47.852;12.070;2023-05-13T04:29:03;16.10;;;11.93;;
16965;SDS011;8599;47.852;12.070;2023-05-13T04:31:31;16.93;;;11.10;;
16965;SDS011;8599;47.852;12.070;2023-05-13T04:33:58;17.70;;;11.90;;
16965;SDS011;8599;47.852;12.070;2023-05-13T04:36:25;14.50;;;10.93;;
16965;SDS011;8599;47.852;12.070;2023-05-13T04:38:52;19.67;;;12.00;;
16965;SDS011;8599;47.852;12.070;2023-05-13T04:41:19;13.53;;;10.60;;
16965;SDS011;8599;47.852;12.070;2023-05-13T04:43:46;17.77;;;11.77;;
16965;SDS011;8599;47.852;12.070;2023-05-13T04:46:13;18.87;;;12.53;;
16965;SDS011;8599;47.852;12.070;2023-05-13T04:48:41;16.43;;;11.47;;
16965;SDS011;8599;47.852;12.070;2023-05-13T04:51:12;20.13;;;11.53;;
16965;SDS011;8599;47.852;12.070;2023-05-13T04:53:39;20.87;;;11.73;;
16965;SDS011;8599;47.852;12.070;2023-05-13T04:56:06;16.70;;;11.57;;
16965;SDS011;8599;47.852;12.070;2023-05-13T04:58:33;19.37;;;12.50;;
16965;SDS011;8599;47.852;12.070;2023-05-13T05:01:00;18.47;;;12.27;;
16965;SDS011;8599;47.852;12.070;2023-05-13T05:03:27;18.50;;;11.67;;
16965;SDS011;8599;47.852;12.070;2023-05-13T05:05:55;19.73;;;12.60;;
16965;SDS011;8599;47.852;12.070;2023-05-13T05:08:22;19.43;;;12.00;;
16965;SDS011;8599;47.852;12.070;2023-05-13T05:10:48;17.20;;;11.97;;
16965;SDS011;8599;47.852;12.070;2023-05-13T05:13:15;18.23;;;12.23;;
16965;SDS011;8599;47.852;12.070;2023-05-13T05:15:42;17.80;;;11.40;;
16965;SDS011;8599;47.852;12.070;2023-05-13T05:18:09;21.10;;;12.63;;
16965;SDS011;8599;47.852;12.070;2023-05-13T05:20:36;17.57;;;12.27;;
16965;SDS011;8599;47.852;12.070;2023-05-13T05:23:04;20.53;;;12.93;;
16965;SDS011;8599;47.852;12.070;2023-05-13T05:25:32;24.47;;;12.93;;
16965;SDS011;8599;47.852;12.070;2023-05-13T05:27:59;16.40;;;10.93;;
16965;SDS011;8599;47.852;12.070;2023-05-13T05:30:28;17.77;;;12.00;;
16965;SDS011;8599;47.852;12.070;2023-05-13T05:32:56;18.83;;;11.93;;
16965;SDS011;8599;47.852;12.070;2023-05-13T05:35:23;18.03;;;11.53;;
16965;SDS011;8599;47.852;12.070;2023-05-13T05:37:50;20.17;;;11.30;;
16965;SDS011;8599;47.852;12.070;2023-05-13T05:40:19;16.73;;;11.87;;
16965;SDS011;8599;47.852;12.070;2023-05-13T05:42:45;15.23;;;11.87;;
16965;SDS011;8599;47.852;12.070;2023-05-13T05:45:12;17.97;;;11.60;;
16965;SDS011;8599;47.852;12.070;2023-05-13T05:47:39;18.63;;;11.33;;
16965;SDS011;8599;47.852;12.070;2023-05-13T05:50:06;18.23;;;11.83;;
16965;SDS011;8599;47.852;12.070;2023-05-13T05:52:33;17.27;;;11.37;;
16965;SDS011;8599;47.852;12.070;2023-05-13T05:55:00;17.43;;;10.90;;
16965;SDS011;8599;47.852;12.070;2023-05-13T05:57:29;20.07;;;11.87;;
16965;SDS011;8599;47.852;12.070;2023-05-13T05:59:55;15.77;;;10.43;;
16965;SDS011;8599;47.852;12.070;2023-05-13T06:02:22;16.13;;;11.57;;
16965;SDS011;8599;47.852;12.070;2023-05-13T06:04:49;17.77;;;10.73;;
16965;SDS011;8599;47.852;12.070;2023-05-13T06:07:16;20.63;;;10.60;;
16965;SDS011;8599;47.852;12.070;2023-05-13T06:09:43;16.77;;;10.60;;
16965;SDS011;8599;47.852;12.070;2023-05-13T06:12:09;17.40;;;10.60;;
16965;SDS011;8599;47.852;12.070;2023-05-13T06:14:38;15.83;;;10.83;;
16965;SDS011;8599;47.852;12.070;2023-05-13T06:17:04;19.20;;;11.20;;
16965;SDS011;8599;47.852;12.070;2023-05-13T06:19:31;17.57;;;11.13;;
16965;SDS011;8599;47.852;12.070;2023-05-13T06:21:58;15.33;;;11.07;;
16965;SDS011;8599;47.852;12.070;2023-05-13T06:24:25;17.77;;;9.70;;
16965;SDS011;8599;47.852;12.070;2023-05-13T06:26:52;14.33;;;10.27;;
16965;SDS011;8599;47.852;12.070;2023-05-13T06:29:18;14.57;;;9.83;;
16965;SDS011;8599;47.852;12.070;2023-05-13T06:31:46;14.00;;;9.87;;
16965;SDS011;8599;47.852;12.070;2023-05-13T06:34:13;22.50;;;10.67;;
16965;SDS011;8599;47.852;12.070;2023-05-13T06:36:41;18.00;;;10.40;;
16965;SDS011;8599;47.852;12.070;2023-05-13T06:39:08;13.77;;;9.67;;
16965;SDS011;8599;47.852;12.070;2023-05-13T06:41:35;16.13;;;10.27;;
16965;SDS011;8599;47.852;12.070;2023-05-13T06:44:02;12.90;;;9.63;;
16965;SDS011;8599;47.852;12.070;2023-05-13T06:46:29;11.60;;;9.23;;
16965;SDS011;8599;47.852;12.070;2023-05-13T06:48:58;17.43;;;9.77;;
16965;SDS011;8599;47.852;12.070;2023-05-13T06:51:25;13.27;;;9.67;;
16965;SDS011;8599;47.852;12.070;2023-05-13T06:53:52;12.67;;;9.00;;
16965;SDS011;8599;47.852;12.070;2023-05-13T06:56:20;16.80;;;9.60;;
16965;SDS011;8599;47.852;12.070;2023-05-13T06:58:47;16.33;;;9.23;;
16965;SDS011;8599;47.852;12.070;2023-05-13T07:01:13;12.27;;;8.93;;
16965;SDS011;8599;47.852;12.070;2023-05-13T07:03:41;15.03;;;9.30;;
16965;SDS011;8599;47.852;12.070;2023-05-13T07:06:09;14.97;;;9.50;;
16965;SDS011;8599;47.852;12.070;2023-05-13T07:08:36;12.93;;;8.37;;
16965;SDS011;8599;47.852;12.070;2023-05-13T07:11:03;12.87;;;7.67;;
16965;SDS011;8599;47.852;12.070;2023-05-13T07:13:29;12.90;;;8.17;;
16965;SDS011;8599;47.852;12.070;2023-05-13T07:15:58;12.07;;;8.47;;
16965;SDS011;8599;47.852;12.070;2023-05-13T07:18:26;11.03;;;7.50;;
16965;SDS011;8599;47.852;12.070;2023-05-13T07:20:53;12.23;;;8.13;;
16965;SDS011;8599;47.852;12.070;2023-05-13T07:23:22;12.13;;;7.83;;
16965;SDS011;8599;47.852;12.070;2023-05-13T07:25:49;13.37;;;6.97;;
16965;SDS011;8599;47.852;12.070;2023-05-13T07:28:16;9.17;;;7.10;;
16965;SDS011;8599;47.852;12.070;2023-05-13T07:30:43;11.20;;;7.47;;
16965;SDS011;8599;47.852;12.070;2023-05-13T07:33:10;10.20;;;7.53;;
16965;SDS011;8599;47.852;12.070;2023-05-13T07:35:37;9.83;;;7.80;;
16965;SDS011;8599;47.852;12.070;2023-05-13T07:38:05;9.57;;;7.13;;
16965;SDS011;8599;47.852;12.070;2023-05-13T07:40:35;11.93;;;7.60;;
16965;SDS011;8599;47.852;12.070;2023-05-13T07:43:02;10.57;;;7.07;;
16965;SDS011;8599;47.852;12.070;2023-05-13T07:45:30;15.90;;;8.23;;
16965;SDS011;8599;47.852;12.070;2023-05-13T07:47:56;12.20;;;7.10;;
16965;SDS011;8599;47.852;12.070;2023-05-13T07:50:23;10.37;;;7.47;;
16965;SDS011;8599;47.852;12.070;2023-05-13T07:52:50;10.90;;;7.47;;
16965;SDS011;8599;47.852;12.070;2023-05-13T07:55:17;12.27;;;7.17;;
16965;SDS011;8599;47.852;12.070;2023-05-13T07:57:45;9.93;;;6.57;;
16965;SDS011;8599;47.852;12.070;2023-05-13T08:00:12;10.20;;;6.67;;
16965;SDS011;8599;47.852;12.070;2023-05-13T08:02:40;10.77;;;7.50;;
16965;SDS011;8599;47.852;12.070;2023-05-13T08:05:08;11.60;;;7.17;;
16965;SDS011;8599;47.852;12.070;2023-05-13T08:07:35;9.80;;;6.63;;
16965;SDS011;8599;47.852;12.070;2023-05-13T08:10:02;10.73;;;6.73;;
16965;SDS011;8599;47.852;12.070;2023-05-13T08:12:29;8.93;;;6.30;;
16965;SDS011;8599;47.852;12.070;2023-05-13T08:14:57;10.57;;;6.33;;
16965;SDS011;8599;47.852;12.070;2023-05-13T08:17:24;10.10;;;7.40;;
16965;SDS011;8599;47.852;12.070;2023-05-13T08:19:51;11.90;;;6.70;;
16965;SDS011;8599;47.852;12.070;2023-05-13T08:22:17;9.43;;;6.77;;
16965;SDS011;8599;47.852;12.070;2023-05-13T08:24:44;12.10;;;7.17;;
16965;SDS011;8599;47.852;12.070;2023-05-13T08:27:11;9.73;;;7.13;;
16965;SDS011;8599;47.852;12.070;2023-05-13T08:29:38;9.50;;;6.67;;
16965;SDS011;8599;47.852;12.070;2023-05-13T08:32:06;11.60;;;7.53;;
16965;SDS011;8599;47.852;12.070;2023-05-13T08:34:33;7.33;;;6.00;;
16965;SDS011;8599;47.852;12.070;2023-05-13T08:37:00;8.03;;;6.53;;
16965;SDS011;8599;47.852;12.070;2023-05-13T08:39:27;11.03;;;6.57;;
16965;SDS011;8599;47.852;12.070;2023-05-13T08:41:55;9.43;;;6.30;;
16965;SDS011;8599;47.852;12.070;2023-05-13T08:44:22;7.07;;;5.63;;
16965;SDS011;8599;47.852;12.070;2023-05-13T08:46:57;8.13;;;5.80;;
16965;SDS011;8599;47.852;12.070;2023-05-13T08:49:31;11.53;;;5.87;;
16965;SDS011;8599;47.852;12.070;2023-05-13T08:51:59;6.63;;;5.47;;
16965;SDS011;8599;47.852;12.070;2023-05-13T08:54:26;6.30;;;5.40;;
16965;SDS011;8599;47.852;12.070;2023-05-13T08:56:54;11.30;;;6.00;;
16965;SDS011;8599;47.852;12.070;2023-05-13T08:59:21;7.00;;;5.83;;
16965;SDS011;8599;47.852;12.070;2023-05-13T09:01:49;9.40;;;6.47;;
16965;SDS011;8599;47.852;12.070;2023-05-13T09:04:17;10.00;;;6.83;;
16965;SDS011;8599;47.852;12.070;2023-05-13T09:06:46;10.83;;;6.23;;
16965;SDS011;8599;47.852;12.070;2023-05-13T09:09:13;7.87;;;5.90;;
16965;SDS011;8599;47.852;12.070;2023-05-13T09:11:40;7.43;;;5.47;;
16965;SDS011;8599;47.852;12.070;2023-05-13T09:14:08;8.67;;;5.67;;
16965;SDS011;8599;47.852;12.070;2023-05-13T09:16:36;5.70;;;4.97;;
16965;SDS011;8599;47.852;12.070;2023-05-13T09:19:04;6.77;;;5.00;;
16965;SDS011;8599;47.852;12.070;2023-05-13T09:21:32;5.43;;;4.93;;
16965;SDS011;8599;47.852;12.070;2023-05-13T09:24:03;4.97;;;4.53;;
16965;SDS011;8599;47.852;12.070;2023-05-13T09:26:32;5.10;;;3.93;;
16965;SDS011;8599;47.852;12.070;2023-05-13T09:29:19;4.40;;;3.97;;
16965;SDS011;8599;47.852;12.070;2023-05-13T09:31:48;4.70;;;4.07;;
16965;SDS011;8599;47.852;12.070;2023-05-13T09:34:26;6.43;;;4.43;;
16965;SDS011;8599;47.852;12.070;2023-05-13T09:36:55;7.77;;;4.83;;
16965;SDS011;8599;47.852;12.070;2023-05-13T09:39:24;14.03;;;5.23;;
16965;SDS011;8599;47.852;12.070;2023-05-13T09:41:52;4.70;;;4.20;;
16965;SDS011;8599;47.852;12.070;2023-05-13T09:44:18;5.33;;;4.53;;
16965;SDS011;8599;47.852;12.070;2023-05-13T09:46:46;4.57;;;4.07;;
16965;SDS011;8599;47.852;12.070;2023-05-13T09:49:13;8.70;;;5.30;;
16965;SDS011;8599;47.852;12.070;2023-05-13T09:51:41;5.30;;;4.53;;
16965;SDS011;8599;47.852;12.070;2023-05-13T09:54:09;5.33;;;4.20;;
16965;SDS011;8599;47.852;12.070;2023-05-13T09:56:38;6.20;;;4.70;;
16965;SDS011;8599;47.852;12.070;2023-05-13T09:59:04;4.93;;;4.30;;
16965;SDS011;8599;47.852;12.070;2023-05-13T10:01:31;5.27;;;4.60;;
16965;SDS011;8599;47.852;12.070;2023-05-13T10:04:01;4.87;;;4.33;;
16965;SDS011;8599;47.852;12.070;2023-05-13T10:06:30;4.73;;;4.10;;
16965;SDS011;8599;47.852;12.070;2023-05-13T10:08:57;4.57;;;4.17;;
16965;SDS011;8599;47.852;12.070;2023-05-13T10:11:27;4.23;;;3.83;;
16965;SDS011;8599;47.852;12.070;2023-05-13T10:13:59;5.10;;;4.20;;
16965;SDS011;8599;47.852;12.070;2023-05-13T10:16:27;4.43;;;4.03;;
16965;SDS011;8599;47.852;12.070;2023-05-13T10:18:55;3.73;;;3.43;;
16965;SDS011;8599;47.852;12.070;2023-05-13T10:21:22;5.07;;;3.73;;
16965;SDS011;8599;47.852;12.070;2023-05-13T10:23:50;4.17;;;2.90;;
16965;SDS011;8599;47.852;12.070;2023-05-13T10:26:17;4.50;;;3.57;;
16965;SDS011;8599;47.852;12.070;2023-05-13T10:28:45;2.93;;;2.70;;
16965;SDS011;8599;47.852;12.070;2023-05-13T10:31:14;3.30;;;2.97;;
16965;SDS011;8599;47.852;12.070;2023-05-13T10:33:41;4.90;;;4.00;;
16965;SDS011;8599;47.852;12.070;2023-05-13T10:36:12;4.83;;;3.67;;
16965;SDS011;8599;47.852;12.070;2023-05-13T10:38:53;3.80;;;3.10;;
16965;SDS011;8599;47.852;12.070;2023-05-13T10:41:49;3.57;;;3.23;;
16965;SDS011;8599;47.852;12.070;2023-05-13T10:44:50;4.30;;;3.20;;
16965;SDS011;8599;47.852;12.070;2023-05-13T10:47:21;4.27;;;3.10;;
16965;SDS011;8599;47.852;12.070;2023-05-13T10:49:49;3.13;;;2.63;;
16965;SDS011;8599;47.852;12.070;2023-05-13T10:52:17;4.80;;;3.80;;
16965;SDS011;8599;47.852;12.070;2023-05-13T10:54:56;6.07;;;4.67;;
16965;SDS011;8599;47.852;12.070;2023-05-13T10:57:26;4.70;;;3.80;;
16965;SDS011;8599;47.852;12.070;2023-05-13T11:00:12;5.13;;;4.10;;
16965;SDS011;8599;47.852;12.070;2023-05-13T11:02:41;4.93;;;3.97;;
16965;SDS011;8599;47.852;12.070;2023-05-13T11:05:08;4.83;;;4.00;;
16965;SDS011;8599;47.852;12.070;2023-05-13T11:07:44;4.00;;;3.53;;
16965;SDS011;8599;47.852;12.070;2023-05-13T11:10:24;5.47;;;4.10;;
16965;SDS011;8599;47.852;12.070;2023-05-13T11:15:45;4.47;;;3.70;;
16965;SDS011;8599;47.852;12.070;2023-05-13T11:18:16;5.57;;;4.10;;
16965;SDS011;8599;47.852;12.070;2023-05-13T11:20:44;6.03;;;4.03;;
16965;SDS011;8599;47.852;12.070;2023-05-13T11:23:15;6.07;;;4.17;;
16965;SDS011;8599;47.852;12.070;2023-05-13T11:25:43;6.50;;;4.53;;
16965;SDS011;8599;47.852;12.070;2023-05-13T11:28:13;5.37;;;4.17;;
16965;SDS011;8599;47.852;12.070;2023-05-13T11:30:41;4.03;;;3.53;;
16965;SDS011;8599;47.852;12.070;2023-05-13T11:33:20;4.20;;;3.80;;
16965;SDS011;8599;47.852;12.070;2023-05-13T11:35:52;4.10;;;3.70;;
16965;SDS011;8599;47.852;12.070;2023-05-13T11:38:21;5.53;;;4.23;;
16965;SDS011;8599;47.852;12.070;2023-05-13T11:40:48;5.00;;;3.70;;
16965;SDS011;8599;47.852;12.070;2023-05-13T11:43:18;8.00;;;5.37;;
16965;SDS011;8599;47.852;12.070;2023-05-13T11:45:45;4.73;;;4.23;;
16965;SDS011;8599;47.852;12.070;2023-05-13T11:48:18;5.27;;;4.37;;
16965;SDS011;8599;47.852;12.070;2023-05-13T11:50:48;4.53;;;4.13;;
16965;SDS011;8599;47.852;12.070;2023-05-13T11:53:18;5.23;;;4.73;;
16965;SDS011;8599;47.852;12.070;2023-05-13T11:55:46;5.87;;;5.00;;
16965;SDS011;8599;47.852;12.070;2023-05-13T11:58:13;4.93;;;4.53;;
16965;SDS011;8599;47.852;12.070;2023-05-13T12:00:40;6.33;;;4.53;;
16965;SDS011;8599;47.852;12.070;2023-05-13T12:03:08;6.40;;;4.40;;
16965;SDS011;8599;47.852;12.070;2023-05-13T12:05:37;5.53;;;4.93;;
16965;SDS011;8599;47.852;12.070;2023-05-13T12:08:05;6.00;;;5.40;;
16965;SDS011;8599;47.852;12.070;2023-05-13T12:10:33;5.37;;;4.87;;
16965;SDS011;8599;47.852;12.070;2023-05-13T12:13:00;10.83;;;5.30;;
16965;SDS011;8599;47.852;12.070;2023-05-13T12:15:27;5.60;;;4.73;;
16965;SDS011;8599;47.852;12.070;2023-05-13T12:17:55;6.13;;;4.90;;
16965;SDS011;8599;47.852;12.070;2023-05-13T12:20:22;5.37;;;4.90;;
16965;SDS011;8599;47.852;12.070;2023-05-13T12:22:51;6.10;;;5.23;;
16965;SDS011;8599;47.852;12.070;2023-05-13T12:25:40;6.10;;;4.60;;
16965;SDS011;8599;47.852;12.070;2023-05-13T12:28:09;5.80;;;4.10;;
16965;SDS011;8599;47.852;12.070;2023-05-13T12:30:41;5.23;;;4.47;;
16965;SDS011;8599;47.852;12.070;2023-05-13T12:33:13;7.00;;;4.70;;
16965;SDS011;8599;47.852;12.070;2023-05-13T12:35:41;5.50;;;4.40;;
16965;SDS011;8599;47.852;12.070;2023-05-13T12:38:12;6.67;;;4.43;;
16965;SDS011;8599;47.852;12.070;2023-05-13T12:40:41;3.90;;;3.53;;
16965;SDS011;8599;47.852;12.070;2023-05-13T12:43:08;4.30;;;3.90;;
16965;SDS011;8599;47.852;12.070;2023-05-13T12:45:37;4.93;;;4.43;;
16965;SDS011;8599;47.852;12.070;2023-05-13T12:48:06;4.27;;;3.83;;
16965;SDS011;8599;47.852;12.070;2023-05-13T12:50:33;4.57;;;4.07;;
16965;SDS011;8599;47.852;12.070;2023-05-13T12:52:59;5.47;;;3.93;;
16965;SDS011;8599;47.852;12.070;2023-05-13T12:55:28;4.30;;;3.70;;
16965;SDS011;8599;47.852;12.070;2023-05-13T12:57:57;4.73;;;4.10;;
16965;SDS011;8599;47.852;12.070;2023-05-13T13:00:24;4.83;;;4.43;;
16965;SDS011;8599;47.852;12.070;2023-05-13T13:02:52;5.30;;;4.30;;
16965;SDS011;8599;47.852;12.070;2023-05-13T13:05:19;4.93;;;4.43;;
16965;SDS011;8599;47.852;12.070;2023-05-13T13:07:46;5.37;;;4.90;;
16965;SDS011;8599;47.852;12.070;2023-05-13T13:10:13;5.10;;;4.60;;
16965;SDS011;8599;47.852;12.070;2023-05-13T13:12:41;5.10;;;4.40;;
16965;SDS011;8599;47.852;12.070;2023-05-13T13:15:10;6.90;;;4.93;;
16965;SDS011;8599;47.852;12.070;2023-05-13T13:17:37;6.40;;;4.63;;
16965;SDS011;8599;47.852;12.070;2023-05-13T13:20:04;4.73;;;4.30;;
16965;SDS011;8599;47.852;12.070;2023-05-13T13:22:32;4.37;;;4.07;;
16965;SDS011;8599;47.852;12.070;2023-05-13T13:25:00;3.93;;;3.60;;
16965;SDS011;8599;47.852;12.070;2023-05-13T13:27:28;3.70;;;3.37;;
16965;SDS011;8599;47.852;12.070;2023-05-13T13:29:56;4.13;;;3.40;;
16965;SDS011;8599;47.852;12.070;2023-05-13T13:32:23;4.07;;;3.67;;
16965;SDS011;8599;47.852;12.070;2023-05-13T13:34:50;3.37;;;3.03;;
16965;SDS011;8599;47.852;12.070;2023-05-13T13:37:17;5.00;;;3.80;;
16965;SDS011;8599;47.852;12.070;2023-05-13T13:39:43;6.60;;;3.70;;
16965;SDS011;8599;47.852;12.070;2023-05-13T13:42:10;3.93;;;3.53;;
16965;SDS011;8599;47.852;12.070;2023-05-13T13:44:37;4.60;;;3.60;;
16965;SDS011;8599;47.852;12.070;2023-05-13T13:47:06;3.63;;;3.30;;
16965;SDS011;8599;47.852;12.070;2023-05-13T13:49:32;6.10;;;3.70;;
16965;SDS011;8599;47.852;12.070;2023-05-13T13:51:59;4.80;;;3.87;;
16965;SDS011;8599;47.852;12.070;2023-05-13T13:54:26;4.50;;;4.10;;
16965;SDS011;8599;47.852;12.070;2023-05-13T13:56:53;5.67;;;4.37;;
16965;SDS011;8599;47.852;12.070;2023-05-13T13:59:19;3.40;;;3.10;;
16965;SDS011;8599;47.852;12.070;2023-05-13T14:01:46;3.30;;;3.00;;
16965;SDS011;8599;47.852;12.070;2023-05-13T14:04:15;7.47;;;3.17;;
16965;SDS011;8599;47.852;12.070;2023-05-13T14:06:44;3.80;;;3.40;;
16965;SDS011;8599;47.852;12.070;2023-05-13T14:09:11;3.27;;;3.07;;
16965;SDS011;8599;47.852;12.070;2023-05-13T14:11:38;5.13;;;3.17;;
16965;SDS011;8599;47.852;12.070;2023-05-13T14:14:04;4.87;;;3.43;;
16965;SDS011;8599;47.852;12.070;2023-05-13T14:16:31;3.37;;;3.07;;
16965;SDS011;8599;47.852;12.070;2023-05-13T14:18:58;2.77;;;2.50;;
16965;SDS011;8599;47.852;12.070;2023-05-13T14:21:26;3.03;;;2.77;;
16965;SDS011;8599;47.852;12.070;2023-05-13T14:23:53;3.30;;;2.80;;
16965;SDS011;8599;47.852;12.070;2023-05-13T14:26:20;2.67;;;2.47;;
16965;SDS011;8599;47.852;12.070;2023-05-13T14:28:46;3.73;;;3.20;;
16965;SDS011;8599;47.852;12.070;2023-05-13T14:31:13;3.53;;;3.23;;
16965;SDS011;8599;47.852;12.070;2023-05-13T14:33:40;3.87;;;3.47;;
16965;SDS011;8599;47.852;12.070;2023-05-13T14:36:07;4.20;;;3.53;;
16965;SDS011;8599;47.852;12.070;2023-05-13T14:38:37;5.43;;;4.17;;
16965;SDS011;8599;47.852;12.070;2023-05-13T14:41:04;4.20;;;3.83;;
16965;SDS011;8599;47.852;12.070;2023-05-13T14:43:31;4.00;;;3.60;;
16965;SDS011;8599;47.852;12.070;2023-05-13T14:45:58;4.97;;;3.87;;